Town and Country, Missouri
Current Conditions -  °F | °C
As of 10:54 AM on Saturday 25 Oct 2014 (Local Time) from KSUS Reporting Station
Clear Clear  
Wind Chill: 71°   Ceiling: Unl
Heat Index: 71°   Visibility: 10mi
Dew Point: 61°   Wind: 3mph
Humidity: 70%   Direction: 290°WNW
Pressure: 30.04"   Gusts: NA
Location:  38.6038°N, 90.5556°W
Report Text: KSUS 251554Z 29003KT 10SM CLR 22/16 A3004 RMK AO2 SLP167 T02170161
Loading
Personal Weather Stations






























Interactive Weather Map
Tropical Storm Tracking
New forecast layout! Learn more

10-Day Weather Forecast

Advertisements
Track Severe Weather on mobile